createdAt,value
2019-03-15T09:35:41.107Z,46.01
2019-03-15T09:36:49.529Z,45.59
2019-03-15T09:37:35.033Z,45.42
2019-03-15T09:38:31.978Z,45.31
2019-03-15T09:39:28.934Z,45.20
2019-03-15T09:40:26.241Z,45.28
2019-03-15T09:41:31.812Z,44.98
2019-03-15T09:42:19.796Z,44.88
2019-03-15T09:43:16.750Z,44.81
2019-03-15T09:44:13.703Z,44.91
2019-03-15T09:45:10.662Z,44.73
2019-03-15T09:46:06.753Z,44.67
2019-03-15T09:47:05.559Z,44.68
2019-03-15T09:48:01.524Z,44.58
2019-03-15T09:48:59.753Z,45.08
2019-03-15T09:49:55.403Z,44.54
2019-03-15T09:50:52.430Z,44.53
2019-03-15T09:51:49.311Z,44.54
2019-03-15T09:52:46.246Z,44.50
2019-03-15T09:53:43.193Z,44.48
2019-03-15T09:54:41.145Z,44.47
2019-03-15T09:55:37.086Z,44.44
2019-03-15T09:56:34.036Z,44.44
2019-03-15T09:57:30.972Z,44.41
2019-03-15T09:58:27.913Z,44.40
2019-03-15T09:59:24.853Z,44.33
2019-03-15T10:00:21.803Z,44.50
2019-03-15T10:01:34.262Z,44.33
2019-03-15T10:02:15.672Z,44.33
2019-03-15T10:03:22.035Z,44.15
2019-03-15T10:04:10.059Z,43.88
2019-03-15T10:05:11.390Z,43.54
2019-03-15T10:06:14.408Z,43.51
2019-03-15T10:07:00.892Z,43.59
2019-03-15T10:07:57.841Z,43.74
2019-03-15T10:08:54.787Z,43.88
2019-03-15T10:09:51.774Z,44.07
2019-03-15T10:10:49.354Z,44.56
2019-03-15T10:11:45.623Z,44.37
2019-03-15T10:12:42.599Z,44.49
2019-03-15T10:13:39.493Z,44.61
2019-03-15T10:14:36.447Z,44.74
2019-03-15T10:15:33.418Z,44.83
2019-03-15T10:16:30.350Z,44.92
2019-03-15T10:17:27.284Z,44.91
2019-03-15T10:18:24.211Z,45.05
2019-03-15T10:19:21.163Z,45.08
2019-03-15T10:20:18.105Z,44.66
2019-03-15T10:21:14.551Z,45.13
2019-03-15T10:22:11.977Z,45.12
2019-03-15T10:23:08.431Z,45.17
2019-03-15T10:24:05.866Z,45.18
2019-03-15T10:25:02.831Z,45.21
2019-03-15T10:25:59.760Z,45.18
2019-03-15T10:26:56.712Z,45.26
2019-03-15T10:27:53.663Z,44.91
2019-03-15T10:28:50.604Z,45.26
2019-03-15T10:29:47.546Z,45.30
2019-03-15T10:30:44.599Z,45.28
2019-03-15T10:31:40.942Z,45.32
2019-03-15T10:32:38.382Z,45.33
2019-03-15T10:33:35.319Z,45.34
2019-03-15T10:34:35.484Z,45.33
2019-03-15T10:35:29.209Z,45.36
2019-03-15T10:36:26.164Z,45.40
2019-03-15T10:37:23.120Z,45.45
2019-03-15T10:38:19.564Z,45.45
2019-03-15T10:39:17.006Z,45.66
2019-03-15T10:40:13.451Z,46.09
2019-03-15T10:41:10.884Z,45.88
2019-03-15T10:42:07.830Z,45.90
2019-03-15T10:43:04.777Z,45.95
2019-03-15T10:44:04.232Z,45.94
2019-03-15T10:44:58.672Z,45.88
2019-03-15T10:45:55.633Z,45.87
2019-03-15T10:46:52.613Z,45.93
2019-03-15T10:47:49.546Z,46.21
2019-03-15T10:48:46.626Z,46.07
2019-03-15T10:49:43.440Z,46.16
2019-03-15T10:50:40.439Z,46.19
2019-03-15T10:51:37.350Z,46.27
2019-03-15T10:52:34.297Z,46.37
2019-03-15T10:53:31.273Z,46.37
2019-03-15T10:54:28.195Z,46.40
2019-03-15T10:55:25.136Z,46.54
2019-03-15T10:56:22.098Z,46.61
2019-03-15T10:57:19.059Z,46.64
2019-03-15T10:58:17.012Z,46.65
2019-03-15T10:59:12.956Z,46.66
2019-03-15T11:00:09.908Z,46.65
2019-03-15T11:01:06.845Z,46.66
2019-03-15T11:02:03.812Z,46.68
2019-03-15T11:03:00.240Z,46.79
2019-03-15T11:03:57.692Z,46.82
2019-03-15T11:04:54.641Z,46.82
2019-03-15T11:05:51.578Z,46.82
2019-03-15T11:06:48.603Z,46.23
2019-03-15T11:07:45.474Z,46.96
2019-03-15T11:08:42.430Z,47.02
2019-03-15T11:09:39.378Z,47.05
2019-03-15T11:10:36.334Z,47.04
2019-03-15T11:11:33.295Z,47.03
2019-03-15T11:12:30.241Z,46.97
2019-03-15T11:13:27.687Z,46.96
2019-03-15T11:14:24.137Z,46.85
2019-03-15T11:15:21.088Z,46.78
2019-03-15T11:16:18.023Z,46.71
2019-03-15T11:17:15.040Z,46.62
2019-03-15T11:18:11.941Z,46.59
2019-03-15T11:19:08.883Z,46.54
2019-03-15T11:20:05.822Z,47.48
2019-03-15T11:21:02.774Z,46.50
2019-03-15T11:21:59.732Z,46.45
2019-03-15T11:22:56.692Z,46.46
2019-03-15T11:23:53.635Z,46.41
2019-03-15T11:24:50.604Z,46.46
2019-03-15T11:25:47.507Z,46.47
2019-03-15T11:26:44.592Z,46.45
2019-03-15T11:27:41.440Z,46.43
2019-03-15T11:28:38.371Z,46.44
2019-03-15T11:29:35.314Z,46.44
2019-03-15T11:30:32.263Z,46.41
2019-03-15T11:31:29.210Z,46.21
2019-03-15T11:32:26.168Z,46.63
2019-03-15T11:33:23.137Z,47.07
2019-03-15T11:34:20.089Z,47.55
2019-03-15T11:35:17.041Z,48.06
2019-03-15T11:36:13.989Z,48.45
2019-03-15T11:37:10.947Z,48.37
2019-03-15T11:38:07.894Z,48.73
2019-03-15T11:39:04.846Z,48.73
2019-03-15T11:40:01.795Z,48.66
2019-03-15T11:40:58.751Z,48.64
2019-03-15T11:41:55.692Z,48.68
2019-03-15T11:42:52.674Z,48.66
2019-03-15T11:43:49.671Z,48.62
2019-03-15T11:44:46.602Z,48.62
2019-03-15T11:45:43.503Z,48.66
2019-03-15T11:46:40.608Z,48.77
2019-03-15T11:47:56.446Z,48.75
2019-03-15T11:48:34.354Z,48.71
2019-03-15T11:49:31.314Z,48.70
2019-03-15T11:50:28.244Z,48.74
2019-03-15T11:51:25.203Z,48.72
2019-03-15T11:52:22.137Z,48.64
2019-03-15T11:53:19.193Z,48.50
2019-03-15T11:54:16.042Z,48.57
2019-03-15T11:55:12.994Z,48.64
2019-03-15T11:56:09.939Z,47.81
2019-03-15T11:57:06.907Z,48.78
2019-03-15T11:58:03.859Z,48.81
2019-03-15T11:59:00.803Z,48.86
2019-03-15T11:59:57.772Z,48.90
2019-03-15T12:00:54.716Z,48.96
2019-03-15T12:02:03.548Z,49.02
2019-03-15T12:02:48.630Z,49.06
2019-03-15T12:03:52.905Z,49.02
2019-03-15T12:04:42.604Z,49.26
2019-03-15T12:05:39.491Z,48.79
2019-03-15T12:06:36.600Z,48.82
2019-03-15T12:07:33.407Z,48.79
2019-03-15T12:08:30.352Z,48.73
2019-03-15T12:09:27.307Z,49.15
2019-03-15T12:10:24.272Z,48.70
2019-03-15T12:11:21.209Z,48.79
2019-03-15T12:12:21.722Z,48.82
2019-03-15T12:13:15.126Z,48.79
2019-03-15T12:14:12.077Z,48.79
2019-03-15T12:15:09.020Z,48.86
2019-03-15T12:16:05.977Z,48.76
2019-03-15T12:17:02.935Z,48.77
2019-03-15T12:17:59.397Z,48.35
2019-03-15T12:18:56.844Z,48.75
2019-03-15T12:19:53.799Z,48.42
2019-03-15T12:20:50.755Z,48.65
2019-03-15T12:21:47.726Z,48.57
2019-03-15T12:22:44.678Z,48.51
2019-03-15T12:23:41.640Z,48.43
2019-03-15T12:24:38.596Z,48.39
2019-03-15T12:25:35.557Z,48.96
2019-03-15T12:26:40.085Z,48.23
2019-03-15T12:27:29.594Z,48.17
2019-03-15T12:28:26.390Z,48.12
2019-03-15T12:29:22.847Z,48.05
2019-03-15T12:30:20.298Z,48.01
2019-03-15T12:31:17.283Z,47.92
2019-03-15T12:32:14.218Z,47.88
2019-03-15T12:33:11.161Z,47.82
2019-03-15T12:34:08.125Z,47.76
2019-03-15T12:35:05.079Z,47.79
2019-03-15T12:36:03.364Z,47.68
2019-03-15T12:36:58.973Z,47.62
2019-03-15T12:37:55.934Z,47.55
2019-03-15T12:38:52.889Z,47.52
2019-03-15T12:39:49.333Z,47.47
2019-03-15T12:40:46.777Z,47.43
2019-03-15T12:41:43.748Z,47.38
2019-03-15T12:42:40.215Z,47.33
2019-03-15T12:43:37.647Z,47.33
2019-03-15T12:44:34.594Z,47.22
2019-03-15T12:45:31.547Z,46.96
2019-03-15T12:46:28.604Z,47.13
2019-03-15T12:47:25.458Z,47.56
2019-03-15T12:48:23.409Z,47.36
2019-03-15T12:49:19.375Z,46.97
2019-03-15T12:50:16.322Z,47.26
2019-03-15T12:51:13.284Z,47.04
2019-03-15T12:52:10.233Z,47.03
2019-03-15T12:53:07.173Z,47.13
2019-03-15T12:54:04.135Z,47.29
2019-03-15T12:55:01.087Z,46.87
2019-03-15T12:55:58.015Z,47.53
2019-03-15T12:56:54.977Z,47.72
2019-03-15T12:57:51.426Z,47.95
2019-03-15T12:58:48.881Z,48.20
2019-03-15T12:59:45.825Z,48.46
2019-03-15T13:00:42.783Z,48.68
2019-03-15T13:01:39.742Z,48.60
2019-03-15T13:02:36.669Z,49.06
2019-03-15T13:03:33.612Z,49.21
2019-03-15T13:04:30.602Z,49.42
2019-03-15T13:05:27.502Z,49.50
2019-03-15T13:06:24.595Z,49.49
2019-03-15T13:07:21.399Z,49.58
2019-03-15T13:08:18.366Z,49.64
2019-03-15T13:09:15.314Z,49.43
2019-03-15T13:10:12.250Z,49.83
2019-03-15T13:11:09.192Z,49.82
2019-03-15T13:12:06.144Z,49.94
2019-03-15T13:13:03.105Z,50.06
2019-03-15T13:14:00.038Z,50.12
2019-03-15T13:14:56.979Z,50.15
2019-03-15T13:15:53.934Z,50.18
2019-03-15T13:16:50.907Z,49.87
2019-03-15T13:17:47.846Z,50.34
2019-03-15T13:18:44.802Z,50.30
2019-03-15T13:19:54.267Z,50.40
2019-03-15T13:20:38.718Z,50.42
2019-03-15T13:21:35.667Z,50.46
2019-03-15T13:22:32.614Z,50.54
2019-03-15T13:23:29.570Z,50.60
2019-03-15T13:24:26.592Z,50.59
2019-03-15T13:25:23.491Z,50.58
2019-03-15T13:26:21.424Z,50.54
2019-03-15T13:27:16.907Z,50.48
2019-03-15T13:28:14.327Z,50.64
2019-03-15T13:29:10.784Z,50.64
2019-03-15T13:30:08.228Z,50.62
2019-03-15T13:31:05.184Z,50.75
2019-03-15T13:32:02.137Z,50.88
2019-03-15T13:32:59.099Z,50.61
2019-03-15T13:33:56.031Z,51.39
2019-03-15T13:34:52.975Z,50.98
2019-03-15T13:35:49.450Z,51.03
2019-03-15T13:36:46.882Z,51.00
2019-03-15T13:37:43.546Z,51.05
2019-03-15T13:38:40.807Z,51.54
2019-03-15T13:39:37.265Z,51.07
2019-03-15T13:40:34.700Z,51.09
2019-03-15T13:41:31.653Z,51.16
2019-03-15T13:42:28.612Z,50.94
2019-03-15T13:43:25.063Z,51.28
2019-03-15T13:44:22.026Z,51.21
2019-03-15T13:45:18.966Z,51.19
2019-03-15T13:46:15.921Z,51.27
2019-03-15T13:47:12.869Z,51.30
2019-03-15T13:48:10.314Z,51.20
2019-03-15T13:49:07.250Z,51.36
2019-03-15T13:50:04.211Z,51.43
2019-03-15T13:51:01.180Z,51.43
2019-03-15T13:51:57.610Z,51.54
2019-03-15T13:52:55.051Z,51.56
2019-03-15T13:53:51.487Z,51.66
2019-03-15T13:54:48.935Z,51.69
2019-03-15T13:55:45.872Z,51.72
2019-03-15T13:56:42.820Z,51.52
2019-03-15T13:57:39.770Z,51.54
2019-03-15T13:58:36.711Z,51.44
2019-03-15T13:59:33.167Z,51.29
2019-03-15T14:00:30.106Z,51.17
2019-03-15T14:01:27.610Z,50.99
2019-03-15T14:02:24.491Z,50.80
2019-03-15T14:03:20.946Z,50.63
2019-03-15T14:04:17.896Z,50.42
2019-03-15T14:05:15.346Z,50.25
2019-03-15T14:06:12.286Z,50.09
2019-03-15T14:07:08.746Z,49.97
2019-03-15T14:08:11.559Z,49.83
2019-03-15T14:09:03.142Z,49.96
2019-03-15T14:09:59.589Z,49.64
2019-03-15T14:10:56.533Z,49.56
2019-03-15T14:11:53.980Z,49.38
2019-03-15T14:12:50.428Z,49.22
2019-03-15T14:13:47.871Z,49.37
2019-03-15T14:14:44.318Z,48.94
2019-03-15T14:15:41.262Z,49.28
2019-03-15T14:16:38.202Z,48.69
2019-03-15T14:17:36.638Z,48.63
2019-03-15T14:18:32.095Z,48.50
2019-03-15T14:19:29.051Z,48.36
2019-03-15T14:20:26.592Z,48.27
2019-03-15T14:21:22.922Z,47.59
2019-03-15T14:22:19.867Z,48.15
2019-03-15T14:23:17.470Z,48.15
2019-03-15T14:24:13.750Z,47.90
2019-03-15T14:25:10.697Z,48.02
2019-03-15T14:26:07.652Z,47.77
2019-03-15T14:27:05.080Z,47.73
2019-03-15T14:28:02.101Z,47.86
2019-03-15T14:28:58.975Z,47.65
2019-03-15T14:29:55.413Z,47.63
2019-03-15T14:30:52.395Z,47.68
2019-03-15T14:31:49.297Z,47.69
2019-03-15T14:32:46.729Z,47.69
2019-03-15T14:33:43.680Z,47.69
2019-03-15T14:34:40.128Z,47.68
2019-03-15T14:35:37.565Z,47.72
2019-03-15T14:36:34.625Z,48.16
2019-03-15T14:37:31.121Z,48.95
2019-03-15T14:38:28.162Z,48.09
2019-03-15T14:39:25.143Z,48.13
2019-03-15T14:40:21.805Z,48.21
2019-03-15T14:41:18.889Z,48.29
2019-03-15T14:42:16.204Z,48.37
2019-03-15T14:43:12.955Z,48.41
2019-03-15T14:44:09.896Z,48.35
2019-03-15T14:45:07.070Z,48.37
2019-03-15T14:46:03.572Z,48.46
2019-03-15T14:47:00.450Z,48.56
2019-03-15T14:47:57.887Z,48.62
2019-03-15T14:48:54.337Z,48.60
2019-03-15T14:49:51.286Z,48.60
2019-03-15T14:50:48.224Z,48.53
2019-03-15T14:51:45.666Z,48.58
2019-03-15T14:52:42.106Z,48.46
2019-03-15T14:53:39.052Z,48.21
2019-03-15T14:54:36.010Z,47.94
2019-03-15T14:55:33.436Z,47.83
2019-03-15T14:56:29.889Z,47.62
2019-03-15T14:57:27.337Z,47.48
2019-03-15T14:58:23.765Z,47.18
2019-03-15T14:59:21.206Z,46.87
2019-03-15T15:00:18.143Z,46.61
2019-03-15T15:01:14.626Z,46.44
2019-03-15T15:02:12.033Z,46.41
2019-03-15T15:03:08.468Z,46.29
2019-03-15T15:04:05.940Z,46.64
2019-03-15T15:05:02.340Z,46.27
2019-03-15T15:05:59.310Z,46.26
2019-03-15T15:06:56.207Z,46.29
2019-03-15T15:07:53.150Z,46.39
2019-03-15T15:08:50.619Z,46.82
2019-03-15T15:09:47.691Z,46.55
2019-03-15T15:10:43.954Z,46.61
2019-03-15T15:11:41.374Z,46.69
2019-03-15T15:12:38.309Z,46.76
2019-03-15T15:13:34.756Z,46.88
2019-03-15T15:14:31.706Z,47.39
2019-03-15T15:15:29.122Z,47.51
2019-03-15T15:16:26.063Z,47.55
2019-03-15T15:17:22.521Z,47.55
2019-03-15T15:18:19.951Z,47.69
2019-03-15T15:19:16.423Z,47.76
2019-03-15T15:20:13.891Z,47.93
2019-03-15T15:21:10.777Z,48.11
2019-03-15T15:22:07.732Z,48.27
2019-03-15T15:23:04.173Z,48.21
2019-03-15T15:24:01.620Z,48.28
2019-03-15T15:24:58.612Z,48.33
2019-03-15T15:25:55.002Z,48.43
2019-03-15T15:26:51.951Z,48.46
2019-03-15T15:27:48.897Z,48.48
2019-03-15T15:28:45.847Z,48.53
2019-03-15T15:29:42.796Z,48.32
2019-03-15T15:30:39.739Z,48.59
2019-03-15T15:31:36.697Z,48.57
2019-03-15T15:32:33.634Z,48.52
2019-03-15T15:33:30.580Z,48.49
2019-03-15T15:34:27.537Z,48.47
2019-03-15T15:35:24.477Z,48.47
2019-03-15T15:36:21.918Z,48.58
2019-03-15T15:37:18.376Z,48.66
2019-03-15T15:38:15.327Z,48.74
2019-03-15T15:39:12.272Z,48.80
2019-03-15T15:40:09.233Z,48.95
2019-03-15T15:41:06.171Z,49.19
2019-03-15T15:42:03.114Z,48.65
2019-03-15T15:43:00.068Z,49.04
2019-03-15T15:43:57.017Z,49.05
2019-03-15T15:44:53.958Z,49.16
2019-03-15T15:45:50.906Z,49.29
2019-03-15T15:46:47.854Z,49.25
2019-03-15T15:47:44.800Z,49.25
2019-03-15T15:48:41.747Z,49.34
2019-03-15T15:49:39.201Z,49.08
2019-03-15T15:50:36.131Z,49.24
2019-03-15T15:51:32.585Z,49.35
2019-03-15T15:52:29.529Z,50.07
2019-03-15T15:53:26.602Z,49.57
2019-03-15T15:54:23.437Z,49.55
2019-03-15T15:55:21.871Z,50.10
2019-03-15T15:56:17.842Z,50.28
2019-03-15T15:57:15.780Z,50.37
2019-03-15T15:58:17.855Z,50.47
2019-03-15T15:59:08.662Z,50.57
2019-03-15T16:00:05.124Z,50.61
2019-03-15T16:01:02.607Z,51.06
2019-03-15T16:01:59.496Z,49.88
2019-03-15T16:02:56.598Z,50.54
2019-03-15T16:03:52.918Z,50.81
2019-03-15T16:04:50.366Z,50.89
2019-03-15T16:05:47.303Z,50.94
2019-03-15T16:06:44.272Z,51.00
2019-03-15T16:07:40.777Z,50.96
2019-03-15T16:08:38.166Z,50.41
2019-03-15T16:09:35.621Z,50.96
2019-03-15T16:10:32.069Z,51.07
2019-03-15T16:11:28.523Z,51.01
2019-03-15T16:12:25.564Z,51.09
2019-03-15T16:13:22.911Z,51.13
2019-03-15T16:14:19.889Z,51.11
2019-03-15T16:15:16.339Z,51.15
2019-03-15T16:16:13.274Z,51.23
2019-03-15T16:17:10.722Z,51.29
2019-03-15T16:18:07.173Z,51.35
2019-03-15T16:19:04.254Z,51.36
2019-03-15T16:20:01.568Z,51.43
2019-03-15T16:20:58.039Z,51.48
2019-03-15T16:21:54.984Z,51.48
2019-03-15T16:22:53.446Z,51.51
2019-03-15T16:23:48.886Z,51.50
2019-03-15T16:24:45.849Z,51.47
2019-03-15T16:25:43.280Z,51.47
2019-03-15T16:26:40.218Z,51.38
2019-03-15T16:27:37.187Z,51.53
2019-03-15T16:28:36.094Z,51.34
2019-03-15T16:29:30.590Z,51.55
2019-03-15T16:30:28.043Z,51.43
2019-03-15T16:31:24.994Z,51.31
2019-03-15T16:32:22.954Z,51.33
2019-03-15T16:33:18.928Z,51.35
2019-03-15T16:34:15.864Z,51.31
2019-03-15T16:35:12.817Z,51.59
2019-03-15T16:36:09.779Z,51.28
2019-03-15T16:37:06.729Z,51.28
2019-03-15T16:38:04.179Z,51.24
2019-03-15T16:39:00.126Z,51.33
2019-03-15T16:39:57.166Z,51.31
2019-03-15T16:40:54.036Z,51.78
2019-03-15T16:41:51.144Z,51.27
2019-03-15T16:42:48.604Z,51.30
2019-03-15T16:43:45.392Z,51.63
2019-03-15T16:44:42.331Z,51.22
2019-03-15T16:45:38.802Z,51.25
2019-03-15T16:46:36.231Z,51.22
2019-03-15T16:47:33.183Z,50.85
2019-03-15T16:48:29.633Z,51.17
2019-03-15T16:49:26.634Z,51.16
2019-03-15T16:50:24.058Z,51.15
2019-03-15T16:51:20.991Z,51.00
2019-03-15T16:52:17.931Z,51.00
2019-03-15T16:53:14.906Z,51.03
2019-03-15T16:54:11.849Z,51.01
2019-03-15T16:55:08.802Z,51.00
2019-03-15T16:56:05.763Z,50.97
2019-03-15T16:57:02.701Z,51.01
2019-03-15T16:57:59.666Z,51.06
2019-03-15T16:58:56.608Z,51.28
2019-03-15T17:01:47.475Z,50.97
2019-03-15T17:02:44.422Z,51.01
2019-03-15T17:03:41.373Z,50.99
2019-03-15T17:04:38.325Z,50.98
2019-03-15T17:05:35.293Z,50.94
2019-03-15T17:06:32.253Z,50.98
2019-03-15T17:07:29.190Z,50.94
2019-03-15T17:08:26.126Z,51.00
2019-03-15T17:09:23.072Z,50.94
2019-03-15T17:10:20.027Z,50.87
2019-03-15T17:11:16.505Z,50.86
2019-03-15T17:12:13.949Z,50.87
2019-03-15T17:13:10.896Z,50.90
2019-03-15T17:14:07.841Z,50.88
2019-03-15T17:15:05.797Z,51.62
2019-03-15T17:16:01.831Z,50.86
2019-03-15T17:16:58.694Z,50.97
2019-03-15T17:17:55.654Z,50.49
2019-03-15T17:18:52.606Z,50.51
2019-03-15T17:19:49.545Z,50.92
2019-03-15T17:20:46.590Z,50.88
2019-03-15T17:21:43.458Z,50.94
2019-03-15T17:22:40.396Z,51.48
2019-03-15T17:23:38.367Z,50.63
2019-03-15T17:24:34.301Z,50.84
2019-03-15T17:25:31.257Z,50.83
2019-03-15T17:26:28.212Z,50.82
2019-03-15T17:27:25.162Z,50.81
2019-03-15T17:28:22.122Z,50.84
2019-03-15T17:29:19.059Z,50.82
2019-03-15T17:30:15.561Z,50.40
2019-03-15T17:31:12.969Z,50.78
2019-03-15T17:32:09.912Z,50.83
2019-03-15T17:33:06.462Z,50.84
2019-03-15T17:34:03.325Z,50.87
2019-03-15T17:35:00.794Z,50.83
2019-03-15T17:35:57.230Z,50.61
2019-03-15T17:37:06.045Z,50.81
2019-03-15T17:37:51.134Z,50.88
2019-03-15T17:38:48.590Z,50.83
2019-03-15T17:39:45.630Z,50.81
2019-03-15T17:40:42.589Z,50.71
2019-03-15T17:41:38.935Z,50.81
2019-03-15T17:42:36.382Z,51.37
2019-03-15T17:43:33.339Z,50.89
2019-03-15T17:44:29.796Z,50.84
2019-03-15T17:45:27.243Z,50.86
2019-03-15T17:46:23.719Z,50.83
2019-03-15T17:47:21.172Z,50.82
2019-03-15T17:48:18.138Z,50.80
2019-03-15T17:49:15.069Z,50.75
2019-03-15T17:50:12.024Z,50.77
2019-03-15T17:51:08.972Z,50.35
2019-03-15T17:52:05.955Z,50.79
2019-03-15T17:53:02.888Z,50.61
2019-03-15T17:53:59.339Z,50.79
2019-03-15T17:54:56.780Z,51.21
2019-03-15T17:55:53.248Z,50.73
2019-03-15T17:56:50.864Z,50.75
2019-03-15T17:57:47.662Z,50.77
2019-03-15T17:58:44.112Z,50.76
2019-03-15T17:59:41.563Z,50.68
2019-03-15T18:00:38.594Z,50.66
2019-03-15T18:01:35.469Z,50.68
2019-03-15T18:02:32.446Z,50.69
2019-03-15T18:03:29.385Z,50.69
2019-03-15T18:04:26.334Z,50.67
2019-03-15T18:05:23.277Z,50.68
2019-03-15T18:06:20.229Z,50.70
2019-03-15T18:07:16.692Z,50.74
2019-03-15T18:08:14.000Z,50.74
2019-03-15T18:09:11.101Z,50.77
2019-03-15T18:10:08.052Z,50.79
2019-03-15T18:11:04.996Z,50.75
2019-03-15T18:12:01.450Z,51.38
2019-03-15T18:12:58.423Z,54.01
2019-03-15T18:13:55.360Z,54.33
2019-03-15T18:14:52.804Z,54.08
2019-03-15T18:15:49.765Z,52.79
2019-03-15T18:16:46.703Z,50.83
2019-03-15T18:17:43.642Z,48.62
2019-03-15T18:18:40.635Z,46.43
2019-03-15T18:19:37.560Z,44.59
2019-03-15T18:20:34.510Z,42.93
2019-03-15T18:21:31.454Z,41.64
2019-03-15T18:22:28.406Z,40.75
2019-03-15T18:23:25.371Z,39.84
2019-03-15T18:24:22.313Z,38.91
2019-03-15T18:25:19.274Z,38.32
2019-03-15T18:26:16.222Z,37.94
2019-03-15T18:27:13.162Z,37.59
2019-03-15T18:28:09.618Z,37.34
2019-03-15T18:29:07.048Z,37.51
2019-03-15T18:30:03.990Z,36.40
2019-03-15T18:31:00.935Z,36.18
2019-03-15T18:31:57.880Z,35.86
2019-03-15T18:32:54.823Z,35.60
2019-03-15T18:33:51.777Z,35.38
2019-03-15T18:34:48.242Z,35.45
2019-03-15T18:35:45.657Z,35.34
2019-03-15T18:36:43.242Z,35.29
2019-03-15T18:37:39.552Z,35.16
2019-03-15T18:38:36.492Z,35.10
2019-03-15T18:39:33.428Z,35.14
2019-03-15T18:40:30.376Z,35.14
2019-03-15T18:41:27.299Z,35.32
2019-03-15T18:42:23.749Z,35.49
2019-03-15T18:43:21.275Z,35.44
2019-03-15T18:44:17.642Z,35.38
2019-03-15T18:45:15.070Z,35.36
2019-03-15T18:46:11.519Z,35.35
2019-03-15T18:47:08.950Z,35.38
2019-03-15T18:48:05.895Z,35.12
2019-03-15T18:49:02.849Z,35.62
2019-03-15T18:49:59.771Z,35.77
2019-03-15T18:50:56.229Z,35.76
2019-03-15T18:51:53.668Z,35.71
2019-03-15T18:52:50.598Z,35.43
2019-03-15T18:53:47.529Z,35.12
2019-03-15T18:54:43.982Z,34.85
2019-03-15T18:55:41.414Z,34.71
2019-03-15T18:56:38.354Z,34.61
2019-03-15T18:57:34.922Z,34.66
2019-03-15T18:58:32.223Z,34.74
2019-03-15T18:59:39.205Z,34.77
2019-03-15T19:00:26.096Z,34.69
2019-03-15T19:01:23.028Z,34.65
2019-03-15T19:02:19.959Z,34.64
2019-03-15T19:03:16.894Z,34.67
2019-03-15T19:04:13.316Z,34.76
2019-03-15T19:05:10.762Z,35.01
2019-03-15T19:06:07.686Z,35.03
2019-03-15T19:07:04.122Z,35.09
2019-03-15T19:08:01.542Z,35.05
2019-03-15T19:08:58.596Z,34.90
2019-03-15T19:09:54.934Z,34.74
2019-03-15T19:10:52.361Z,34.57
2019-03-15T19:11:49.330Z,34.37
2019-03-15T19:12:46.231Z,34.16
2019-03-15T19:13:43.182Z,33.86
2019-03-15T19:14:40.124Z,33.63
2019-03-15T19:15:38.040Z,33.47
2019-03-15T19:16:33.493Z,33.43
2019-03-15T19:17:30.922Z,33.36
2019-03-15T19:18:28.354Z,33.41
2019-03-15T19:19:24.286Z,33.36
2019-03-15T19:20:21.720Z,33.46
2019-03-15T19:21:18.665Z,33.49
2019-03-15T19:22:15.582Z,33.54
2019-03-15T19:23:12.594Z,33.65
2019-03-15T19:24:08.940Z,33.74
2019-03-15T19:25:06.365Z,33.78
2019-03-15T19:26:02.866Z,34.02
2019-03-15T19:27:00.206Z,34.23
2019-03-15T19:27:57.141Z,34.35
2019-03-15T19:28:54.078Z,34.37
2019-03-15T19:29:53.895Z,34.36
2019-03-15T19:30:48.013Z,34.27
2019-03-15T19:31:44.853Z,34.11
2019-03-15T19:32:41.787Z,34.03
2019-03-15T19:33:38.215Z,33.95
2019-03-15T19:34:35.648Z,33.92
2019-03-15T19:35:32.077Z,33.91
2019-03-15T19:36:29.506Z,33.94
2019-03-15T19:37:26.023Z,34.06
2019-03-15T19:38:22.864Z,34.14
2019-03-15T19:39:19.799Z,34.23
2019-03-15T19:40:16.719Z,34.32
2019-03-15T19:41:14.142Z,34.54
2019-03-15T19:42:11.078Z,34.58
2019-03-15T19:43:08.002Z,34.86
2019-03-15T19:44:04.435Z,34.87
2019-03-15T19:45:01.874Z,35.00
2019-03-15T19:45:58.869Z,35.10
2019-03-15T19:46:55.708Z,34.93
2019-03-15T19:47:52.641Z,35.33
2019-03-15T19:48:49.070Z,35.73
2019-03-15T19:49:46.479Z,35.65
2019-03-15T19:50:43.397Z,35.63
2019-03-15T19:51:40.316Z,35.85
2019-03-15T19:52:36.754Z,35.92
2019-03-15T19:53:34.186Z,36.06
2019-03-15T19:54:31.914Z,36.18
2019-03-15T19:55:28.052Z,36.30
2019-03-15T19:56:24.477Z,36.46
2019-03-15T19:57:21.407Z,36.59
2019-03-15T19:58:18.352Z,36.67
2019-03-15T19:59:15.772Z,36.71
2019-03-15T20:00:12.713Z,36.40
2019-03-15T20:01:09.643Z,36.97
2019-03-15T20:02:06.592Z,37.05
2019-03-15T20:03:04.611Z,37.27
2019-03-15T20:04:00.931Z,37.35
2019-03-15T20:04:57.354Z,37.45
2019-03-15T20:05:54.296Z,37.55
2019-03-15T20:06:50.730Z,37.64
2019-03-15T20:07:48.338Z,37.42
2019-03-15T20:08:45.093Z,37.62
2019-03-15T20:09:42.007Z,37.87
2019-03-15T20:10:38.466Z,38.01
2019-03-15T20:11:35.389Z,37.77
2019-03-15T20:12:32.810Z,38.12
2019-03-15T20:13:29.743Z,38.21
2019-03-15T20:14:26.179Z,38.25
2019-03-15T20:15:23.128Z,38.38
2019-03-15T20:16:20.539Z,38.48
2019-03-15T20:17:17.475Z,38.61
2019-03-15T20:18:14.430Z,38.90
2019-03-15T20:19:11.347Z,38.66
2019-03-15T20:20:08.284Z,38.70
2019-03-15T20:21:05.225Z,38.79
2019-03-15T20:22:02.146Z,38.74
2019-03-15T20:22:59.079Z,39.01
2019-03-15T20:23:55.522Z,39.05
2019-03-15T20:24:52.954Z,39.10
2019-03-15T20:25:49.896Z,39.14
2019-03-15T20:26:46.830Z,38.78
2019-03-15T20:27:43.771Z,39.23
2019-03-15T20:28:40.714Z,39.31
2019-03-15T20:29:37.642Z,39.38
2019-03-15T20:30:34.099Z,39.20
2019-03-15T20:31:31.517Z,39.28
2019-03-15T20:32:28.491Z,39.09
2019-03-15T20:33:25.444Z,39.45
2019-03-15T20:34:21.846Z,39.52
2019-03-15T20:35:19.259Z,39.61
2019-03-15T20:36:16.212Z,39.72
2019-03-15T20:37:13.157Z,39.65
2019-03-15T20:38:09.584Z,39.60
2019-03-15T20:39:06.600Z,39.19
2019-03-15T20:40:03.954Z,39.65
2019-03-15T20:41:00.906Z,39.71
2019-03-15T20:41:57.334Z,39.77
2019-03-15T20:42:54.773Z,39.87
2019-03-15T20:43:52.710Z,39.92
2019-03-15T20:44:48.148Z,39.84
2019-03-15T20:45:45.583Z,39.67
2019-03-15T20:46:42.030Z,39.55
2019-03-15T20:47:38.972Z,39.40
2019-03-15T20:48:35.904Z,39.36
2019-03-15T20:49:36.219Z,39.37
2019-03-15T20:50:30.275Z,39.53
2019-03-15T20:51:26.748Z,39.54
2019-03-15T20:52:24.169Z,39.45
2019-03-15T20:53:20.636Z,39.29
2019-03-15T20:54:18.099Z,38.94
2019-03-15T20:55:15.022Z,38.36
2019-03-15T20:56:11.454Z,37.63
2019-03-15T20:57:09.887Z,36.97
2019-03-15T20:58:05.840Z,36.58
2019-03-15T20:59:02.781Z,36.26
2019-03-15T20:59:59.717Z,36.02
2019-03-15T21:00:56.647Z,35.97
2019-03-15T21:01:53.588Z,35.96
2019-03-15T21:02:50.600Z,35.82
2019-03-15T21:03:55.922Z,35.13
2019-03-15T21:04:44.403Z,35.24
2019-03-15T21:05:41.384Z,35.79
2019-03-15T21:06:38.285Z,36.34
2019-03-15T21:07:35.226Z,36.91
2019-03-15T21:08:32.160Z,38.16
2019-03-15T21:09:28.602Z,38.53
2019-03-15T21:10:25.534Z,39.33
2019-03-15T21:11:22.475Z,39.82
2019-03-15T21:12:19.420Z,40.30
2019-03-15T21:13:16.353Z,40.56
2019-03-15T21:14:13.287Z,41.12
2019-03-15T21:15:10.231Z,41.31
2019-03-15T21:16:07.667Z,41.52
2019-03-15T21:17:04.094Z,41.63
2019-03-15T21:18:01.036Z,41.77
2019-03-15T21:18:58.598Z,41.91
2019-03-15T21:19:55.405Z,42.04
2019-03-15T21:20:52.329Z,42.16
2019-03-15T21:21:48.766Z,42.25
2019-03-15T21:22:45.864Z,42.37
2019-03-15T21:23:42.625Z,42.46
2019-03-15T21:24:40.054Z,42.50
2019-03-15T21:25:36.987Z,42.54
2019-03-15T21:26:33.926Z,42.65
2019-03-15T21:27:30.858Z,42.70
2019-03-15T21:28:27.784Z,44.73
2019-03-15T21:29:24.709Z,45.02
2019-03-15T21:30:21.658Z,43.96
2019-03-15T21:31:18.593Z,42.94
2019-03-15T21:32:15.544Z,42.45
2019-03-15T21:33:12.607Z,42.20
2019-03-15T21:34:08.880Z,42.06
2019-03-15T21:35:06.308Z,41.76
2019-03-15T21:36:03.243Z,42.04
2019-03-15T21:36:59.673Z,42.07
2019-03-15T21:37:56.630Z,41.99
2019-03-15T21:38:54.047Z,42.15
2019-03-15T21:39:50.971Z,41.81
2019-03-15T21:40:47.403Z,41.82
2019-03-15T21:41:44.862Z,41.86
2019-03-15T21:42:41.775Z,41.91
2019-03-15T21:43:38.681Z,41.86
2019-03-15T21:44:35.618Z,41.83
2019-03-15T21:45:32.045Z,41.91
2019-03-15T21:46:28.975Z,41.90
2019-03-15T21:47:26.390Z,41.45
2019-03-15T21:48:22.836Z,40.68
2019-03-15T21:49:20.248Z,40.16
2019-03-15T21:50:16.794Z,40.19